createdAt,value
2017-07-10T00:01:12.303Z,2.60
2017-07-10T00:03:39.803Z,2.60
2017-07-10T00:06:07.321Z,3.27
2017-07-10T00:08:34.823Z,2.90
2017-07-10T00:11:02.339Z,3.57
2017-07-10T00:13:29.838Z,2.50
2017-07-10T00:15:57.357Z,2.87
2017-07-10T00:18:24.865Z,2.50
2017-07-10T00:20:52.395Z,2.47
2017-07-10T00:23:20.659Z,2.30
2017-07-10T00:25:48.187Z,2.67
2017-07-10T00:28:15.690Z,3.03
2017-07-10T00:30:43.188Z,2.80
2017-07-10T00:33:10.703Z,2.50
2017-07-10T00:35:38.968Z,3.33
2017-07-10T00:38:07.255Z,3.00
2017-07-10T00:40:34.760Z,3.00
2017-07-10T00:43:02.283Z,2.70
2017-07-10T00:45:29.783Z,3.00
2017-07-10T00:47:57.303Z,2.40
2017-07-10T00:50:24.811Z,2.80
2017-07-10T00:52:52.351Z,3.03
2017-07-10T00:55:19.853Z,2.73
2017-07-10T00:57:48.128Z,2.73
2017-07-10T01:00:16.415Z,2.60
2017-07-10T01:02:43.915Z,3.03
2017-07-10T01:05:11.435Z,2.70
2017-07-10T01:07:38.944Z,3.43
2017-07-10T01:10:06.463Z,2.90
2017-07-10T01:12:33.965Z,3.30
2017-07-10T01:15:01.480Z,3.07
2017-07-10T01:17:28.979Z,2.70
2017-07-10T01:19:56.508Z,2.83
2017-07-10T01:22:24.010Z,2.80
2017-07-10T01:24:51.511Z,2.90
2017-07-10T01:27:19.027Z,2.83
2017-07-10T01:29:46.523Z,2.63
2017-07-10T01:32:14.039Z,3.00
2017-07-10T01:34:41.539Z,3.13
2017-07-10T01:37:09.052Z,3.20
2017-07-10T01:39:36.552Z,3.27
2017-07-10T01:42:04.071Z,3.00
2017-07-10T01:44:31.567Z,3.80
2017-07-10T01:46:59.092Z,3.40
2017-07-10T01:49:26.590Z,2.90
2017-07-10T01:51:54.091Z,3.20
2017-07-10T01:54:21.603Z,3.20
2017-07-10T01:56:49.106Z,3.20
2017-07-10T01:59:16.623Z,3.30
2017-07-10T02:01:44.120Z,3.37
2017-07-10T02:04:11.635Z,4.00
2017-07-10T02:06:39.135Z,3.70
2017-07-10T02:09:06.656Z,3.70
2017-07-10T02:11:34.159Z,3.60
2017-07-10T02:14:01.709Z,3.63
2017-07-10T02:16:29.214Z,3.87
2017-07-10T02:18:56.723Z,4.43
2017-07-10T02:21:24.236Z,3.90
2017-07-10T02:23:51.739Z,4.27
2017-07-10T02:26:19.260Z,3.67
2017-07-10T02:28:46.763Z,4.30
2017-07-10T02:31:14.289Z,5.00
2017-07-10T02:33:41.795Z,4.67
2017-07-10T02:36:09.316Z,4.67
2017-07-10T02:38:36.816Z,4.70
2017-07-10T02:41:04.354Z,4.43
2017-07-10T02:43:31.858Z,4.47
2017-07-10T02:45:59.365Z,4.60
2017-07-10T02:48:26.888Z,5.00
2017-07-10T02:50:54.392Z,4.73
2017-07-10T02:53:21.909Z,4.30
2017-07-10T02:55:49.419Z,5.30
2017-07-10T02:58:16.932Z,3.83
2017-07-10T03:00:44.434Z,3.77
2017-07-10T03:03:11.959Z,3.87
2017-07-10T03:05:39.458Z,4.50
2017-07-10T03:08:06.975Z,3.77
2017-07-10T03:10:34.471Z,3.87
2017-07-10T03:13:01.972Z,4.00
2017-07-10T03:15:29.492Z,4.87
2017-07-10T03:17:57.003Z,3.70
2017-07-10T03:20:24.519Z,4.37
2017-07-10T03:22:52.786Z,4.17
2017-07-10T03:25:20.305Z,4.63
2017-07-10T03:27:47.807Z,3.77
2017-07-10T03:30:16.094Z,4.03
2017-07-10T03:32:43.598Z,4.17
2017-07-10T03:35:11.124Z,4.20
2017-07-10T03:37:38.632Z,3.93
2017-07-10T03:40:06.136Z,3.93
2017-07-10T03:42:33.655Z,4.50
2017-07-10T03:45:01.163Z,4.07
2017-07-10T03:47:28.688Z,4.20
2017-07-10T03:49:56.191Z,4.10
2017-07-10T03:52:23.733Z,4.43
2017-07-10T03:54:51.224Z,4.03
2017-07-10T03:57:18.753Z,4.40
2017-07-10T03:59:46.264Z,4.00
2017-07-10T04:02:13.792Z,4.80
2017-07-10T04:04:41.294Z,4.40
2017-07-10T04:07:09.316Z,4.80
2017-07-10T04:09:36.849Z,4.20
2017-07-10T04:12:04.351Z,4.37
2017-07-10T04:14:31.867Z,3.77
2017-07-10T04:16:59.370Z,5.70
2017-07-10T04:19:26.889Z,4.77
2017-07-10T04:21:54.392Z,5.03
2017-07-10T04:24:21.916Z,4.40
2017-07-10T04:26:49.440Z,4.10
2017-07-10T04:29:17.748Z,4.37
2017-07-10T04:31:45.272Z,4.53
2017-07-10T04:34:13.558Z,4.47
2017-07-10T04:36:41.092Z,4.97
2017-07-10T04:39:08.608Z,4.93
2017-07-10T04:41:36.127Z,5.07
2017-07-10T04:44:03.633Z,4.63
2017-07-10T04:46:31.156Z,5.90
2017-07-10T04:48:59.422Z,5.60
2017-07-10T04:51:27.711Z,5.07
2017-07-10T04:53:55.216Z,5.60
2017-07-10T04:56:22.743Z,5.60
2017-07-10T04:58:50.247Z,5.10
2017-07-10T05:01:17.750Z,5.80
2017-07-10T05:03:45.274Z,5.00
2017-07-10T05:06:12.779Z,5.67
2017-07-10T05:08:40.300Z,4.77
2017-07-10T05:11:08.567Z,3.90
2017-07-10T05:13:36.095Z,5.20
2017-07-10T05:16:03.599Z,5.13
2017-07-10T05:18:31.123Z,5.00
2017-07-10T05:20:58.631Z,4.67
2017-07-10T05:23:26.154Z,4.50
2017-07-10T05:25:53.659Z,4.27
2017-07-10T05:28:21.163Z,4.70
2017-07-10T05:30:48.686Z,4.87
2017-07-10T05:33:16.183Z,4.80
2017-07-10T05:35:43.695Z,5.20
2017-07-10T05:38:11.192Z,5.67
2017-07-10T05:40:38.714Z,4.63
2017-07-10T05:43:06.219Z,5.10
2017-07-10T05:45:33.735Z,4.03
2017-07-10T05:48:01.240Z,4.87
2017-07-10T05:50:28.772Z,5.30
2017-07-10T05:52:56.271Z,5.10
2017-07-10T05:55:23.776Z,4.70
2017-07-10T05:57:51.299Z,5.37
2017-07-10T06:00:18.798Z,4.93
2017-07-10T06:02:46.319Z,5.00
2017-07-10T06:05:13.827Z,5.03
2017-07-10T06:07:41.355Z,6.17
2017-07-10T06:10:08.863Z,5.07
2017-07-10T06:12:36.379Z,4.23
2017-07-10T06:15:03.881Z,4.60
2017-07-10T06:17:32.189Z,5.17
2017-07-10T06:19:59.699Z,4.27
2017-07-10T06:22:27.199Z,4.17
2017-07-10T06:24:54.715Z,4.80
2017-07-10T06:27:22.213Z,4.83
2017-07-10T06:29:50.438Z,4.90
2017-07-10T06:32:17.932Z,4.00
2017-07-10T06:34:45.455Z,5.20
2017-07-10T06:37:12.963Z,5.90
2017-07-10T06:39:40.490Z,5.70
2017-07-10T06:42:07.991Z,4.70
2017-07-10T06:44:35.526Z,5.40
2017-07-10T06:47:03.035Z,4.37
2017-07-10T06:49:30.562Z,4.30
2017-07-10T06:51:58.089Z,4.20
2017-07-10T06:54:26.375Z,5.50
2017-07-10T06:56:53.936Z,4.93
2017-07-10T06:59:21.441Z,4.60
2017-07-10T07:01:48.956Z,4.93
2017-07-10T07:04:17.227Z,4.10
2017-07-10T07:06:44.752Z,3.80
2017-07-10T07:09:12.268Z,4.17
2017-07-10T07:11:39.801Z,4.03
2017-07-10T07:14:08.075Z,4.10
2017-07-10T07:16:35.579Z,3.87
2017-07-10T07:19:03.103Z,4.07
2017-07-10T07:21:31.376Z,3.93
2017-07-10T07:23:59.658Z,3.97
2017-07-10T07:26:27.162Z,3.73
2017-07-10T07:28:54.683Z,3.67
2017-07-10T07:31:22.191Z,3.90
2017-07-10T07:33:49.711Z,3.17
2017-07-10T07:36:17.220Z,2.93
2017-07-10T07:38:44.744Z,2.83
2017-07-10T07:41:12.251Z,2.90
2017-07-10T07:43:40.523Z,2.67
2017-07-10T07:46:08.816Z,2.80
2017-07-10T07:48:36.326Z,2.37
2017-07-10T07:51:03.853Z,2.37
2017-07-10T07:53:31.360Z,2.73
2017-07-10T07:55:58.879Z,2.30
2017-07-10T07:58:26.383Z,2.10
2017-07-10T08:00:53.903Z,2.43
2017-07-10T08:03:21.407Z,2.97
2017-07-10T08:05:48.940Z,2.20
2017-07-10T08:08:16.466Z,2.60
2017-07-10T08:10:43.989Z,2.33
2017-07-10T08:13:12.275Z,3.13
2017-07-10T08:15:40.564Z,2.97
2017-07-10T08:18:08.093Z,2.60
2017-07-10T08:20:35.604Z,2.33
2017-07-10T08:23:03.138Z,2.50
2017-07-10T08:25:30.643Z,2.70
2017-07-10T08:27:58.164Z,2.10
2017-07-10T08:30:25.667Z,2.10
2017-07-10T08:32:53.195Z,1.93
2017-07-10T08:35:20.702Z,2.30
2017-07-10T08:37:48.205Z,2.47
2017-07-10T08:40:15.727Z,2.40
2017-07-10T08:42:43.999Z,2.40
2017-07-10T08:45:12.344Z,2.53
2017-07-10T08:47:39.816Z,2.20
2017-07-10T08:50:07.332Z,2.47
2017-07-10T08:52:34.836Z,2.00
2017-07-10T08:55:02.351Z,2.40
2017-07-10T08:57:29.846Z,2.37
2017-07-10T08:59:57.392Z,2.00
2017-07-10T09:02:24.898Z,2.20
2017-07-10T09:04:52.401Z,1.90
2017-07-10T09:07:19.924Z,2.00
2017-07-10T09:09:47.423Z,1.83
2017-07-10T09:12:14.939Z,2.40
2017-07-10T09:14:42.474Z,1.80
2017-07-10T09:17:10.115Z,2.30
2017-07-10T09:19:38.414Z,2.20
2017-07-10T09:22:06.717Z,1.73
2017-07-10T09:24:34.240Z,1.83
2017-07-10T09:27:01.783Z,2.10
2017-07-10T09:29:29.310Z,1.50
2017-07-10T09:31:57.332Z,2.07
2017-07-10T09:34:24.876Z,1.77
2017-07-10T09:36:52.378Z,1.80
2017-07-10T09:39:19.899Z,1.70
2017-07-10T09:41:47.405Z,2.00
2017-07-10T09:44:14.927Z,2.03
2017-07-10T09:46:43.199Z,2.40
2017-07-10T09:49:10.715Z,2.27
2017-07-10T09:51:38.216Z,1.83
2017-07-10T09:54:06.510Z,1.97
2017-07-10T09:56:34.017Z,1.90
2017-07-10T09:59:01.515Z,1.70
2017-07-10T10:01:29.036Z,1.87
2017-07-10T10:03:56.540Z,1.80
2017-07-10T10:06:24.067Z,1.80
2017-07-10T10:08:51.571Z,2.03
2017-07-10T10:11:19.109Z,2.17
2017-07-10T10:13:47.375Z,2.10
2017-07-10T10:16:15.659Z,2.00
2017-07-10T10:18:43.935Z,2.43
2017-07-10T10:21:12.232Z,2.50
2017-07-10T10:23:39.742Z,4.00
2017-07-10T10:26:07.582Z,2.30
2017-07-10T10:28:35.758Z,3.10
2017-07-10T10:31:03.280Z,2.70
2017-07-10T10:33:30.808Z,3.13
2017-07-10T10:35:58.322Z,3.83
2017-07-10T10:38:25.852Z,3.80
2017-07-10T10:40:53.355Z,3.43
2017-07-10T10:43:20.880Z,3.53
2017-07-10T10:45:48.396Z,3.30
2017-07-10T10:48:15.926Z,3.50
2017-07-10T10:50:43.431Z,4.90
2017-07-10T10:53:11.708Z,4.30
2017-07-10T10:55:40.000Z,4.50
2017-07-10T10:58:07.523Z,4.30
2017-07-10T11:00:35.056Z,4.33
2017-07-10T11:03:02.567Z,4.70
2017-07-10T11:05:30.103Z,4.80
2017-07-10T11:07:57.615Z,5.50
2017-07-10T11:10:25.140Z,4.63
2017-07-10T11:12:53.412Z,4.57
2017-07-10T11:15:21.704Z,4.30
2017-07-10T11:17:49.215Z,5.30
2017-07-10T11:20:16.716Z,5.27
2017-07-10T11:22:44.234Z,4.80
2017-07-10T11:25:11.735Z,5.73
2017-07-10T11:27:39.256Z,4.80
2017-07-10T11:30:06.760Z,5.60
2017-07-10T11:32:34.280Z,5.17
2017-07-10T11:35:01.788Z,4.93
2017-07-10T11:37:29.303Z,5.37
2017-07-10T11:39:56.807Z,5.23
2017-07-10T11:42:24.324Z,5.53
2017-07-10T11:44:52.617Z,5.70
2017-07-10T11:47:20.128Z,5.70
2017-07-10T11:49:47.654Z,4.60
2017-07-10T11:52:15.156Z,5.23
2017-07-10T11:54:42.673Z,5.87
2017-07-10T11:57:10.186Z,5.23
2017-07-10T11:59:38.475Z,4.93
2017-07-10T12:02:06.747Z,5.43
2017-07-10T12:04:35.031Z,5.23
2017-07-10T12:07:03.308Z,5.67
2017-07-10T12:09:31.608Z,5.10
2017-07-10T12:11:59.118Z,5.17
2017-07-10T12:14:26.622Z,6.17
2017-07-10T12:16:54.139Z,5.57
2017-07-10T12:19:21.643Z,5.23
2017-07-10T12:21:49.165Z,6.30
2017-07-10T12:24:17.439Z,5.67
2017-07-10T12:26:45.746Z,6.30
2017-07-10T12:29:13.252Z,6.03
2017-07-10T12:31:40.804Z,7.17
2017-07-10T12:34:08.311Z,6.17
2017-07-10T12:36:35.843Z,7.67
2017-07-10T12:39:03.351Z,6.57
2017-07-10T12:41:30.855Z,6.10
2017-07-10T12:43:58.383Z,6.00
2017-07-10T12:46:25.887Z,7.07
2017-07-10T12:48:54.175Z,6.30
2017-07-10T12:51:21.687Z,6.53
2017-07-10T12:53:49.211Z,6.33
2017-07-10T12:56:16.721Z,6.07
2017-07-10T12:58:44.243Z,6.00
2017-07-10T13:01:11.759Z,5.90
2017-07-10T13:03:40.047Z,6.60
2017-07-10T13:06:07.547Z,5.80
2017-07-10T13:08:35.051Z,5.77
2017-07-10T13:11:03.347Z,6.17
2017-07-10T13:13:30.857Z,5.80
2017-07-10T13:15:58.371Z,6.07
2017-07-10T13:18:25.883Z,5.50
2017-07-10T13:20:53.412Z,5.90
2017-07-10T13:23:20.915Z,5.50
2017-07-10T13:25:49.197Z,6.07
2017-07-10T13:28:17.466Z,5.63
2017-07-10T13:30:45.755Z,5.20
2017-07-10T13:33:13.264Z,5.30
2017-07-10T13:35:40.771Z,5.37
2017-07-10T13:38:09.046Z,6.00
2017-07-10T13:40:37.319Z,5.00
2017-07-10T13:43:05.604Z,4.73
2017-07-10T13:45:33.110Z,4.87
2017-07-10T13:48:00.628Z,5.93
2017-07-10T13:50:28.139Z,5.07
2017-07-10T13:52:55.659Z,5.20
2017-07-10T13:55:23.164Z,6.10
2017-07-10T13:57:50.710Z,5.80
2017-07-10T14:00:18.225Z,6.27
2017-07-10T14:02:45.752Z,5.60
2017-07-10T14:05:14.049Z,5.03
2017-07-10T14:07:41.551Z,5.30
2017-07-10T14:10:09.069Z,5.50
2017-07-10T14:12:36.572Z,5.67
2017-07-10T14:15:04.096Z,5.90
2017-07-10T14:17:31.612Z,6.07
2017-07-10T14:19:59.151Z,5.50
2017-07-10T14:22:26.651Z,6.00
2017-07-10T14:24:54.155Z,5.20
2017-07-10T14:27:21.683Z,5.73
2017-07-10T14:29:49.393Z,6.10
2017-07-10T14:32:16.924Z,6.13
2017-07-10T14:34:44.427Z,5.57
2017-07-10T14:37:12.714Z,5.87
2017-07-10T14:39:40.983Z,6.00
2017-07-10T14:42:09.272Z,5.80
2017-07-10T14:44:37.540Z,6.33
2017-07-10T14:47:05.812Z,6.70
2017-07-10T14:49:33.340Z,6.20
2017-07-10T14:52:00.843Z,5.33
2017-07-10T14:54:29.123Z,5.73
2017-07-10T14:56:56.631Z,5.50
2017-07-10T14:59:24.152Z,5.80
2017-07-10T15:01:51.652Z,6.13
2017-07-10T15:04:19.184Z,6.63
2017-07-10T15:06:46.686Z,5.90
2017-07-10T15:09:14.187Z,6.13
2017-07-10T15:11:41.708Z,6.20
2017-07-10T15:14:09.212Z,5.53
2017-07-10T15:16:36.736Z,5.70
2017-07-10T15:19:05.013Z,5.30
2017-07-10T15:21:33.299Z,5.20
2017-07-10T15:24:00.809Z,5.47
2017-07-10T15:26:28.322Z,5.80
2017-07-10T15:28:55.852Z,6.20
2017-07-10T15:31:24.123Z,6.20
2017-07-10T15:33:51.651Z,6.67
2017-07-10T15:36:19.163Z,7.10
2017-07-10T15:38:46.695Z,6.13
2017-07-10T15:41:14.199Z,6.07
2017-07-10T15:43:41.722Z,6.10
2017-07-10T15:46:09.236Z,5.60
2017-07-10T15:48:36.765Z,6.13
2017-07-10T15:51:04.274Z,5.53
2017-07-10T15:53:31.801Z,5.60
2017-07-10T15:55:59.324Z,5.60
2017-07-10T15:58:27.595Z,6.33
2017-07-10T16:00:55.887Z,5.20
2017-07-10T16:03:23.393Z,5.10
2017-07-10T16:05:50.924Z,5.27
2017-07-10T16:08:18.427Z,5.10
2017-07-10T16:10:45.947Z,4.40
2017-07-10T16:13:13.447Z,5.10
2017-07-10T16:15:40.951Z,5.03
2017-07-10T16:18:08.470Z,5.10
2017-07-10T16:20:36.739Z,5.30
2017-07-10T16:23:04.263Z,36.37
2017-07-10T16:25:31.769Z,8.17
2017-07-10T16:28:00.060Z,5.87
2017-07-10T16:30:27.563Z,5.70
2017-07-10T16:32:55.091Z,5.90
2017-07-10T16:35:22.604Z,5.43
2017-07-10T16:37:50.112Z,5.80
2017-07-10T16:40:17.635Z,5.43
2017-07-10T16:42:45.903Z,4.80
2017-07-10T16:45:13.423Z,4.47
2017-07-10T16:47:40.937Z,11.73
2017-07-10T16:50:08.455Z,5.40
2017-07-10T16:52:35.964Z,4.47
2017-07-10T16:55:03.496Z,5.30
2017-07-10T16:57:31.005Z,3.87
2017-07-10T16:59:58.528Z,3.90
2017-07-10T17:02:26.830Z,3.93
2017-07-10T17:04:54.337Z,4.20
2017-07-10T17:07:21.865Z,4.10
2017-07-10T17:09:49.377Z,3.70
2017-07-10T17:12:17.656Z,4.40
2017-07-10T17:14:45.169Z,3.60
2017-07-10T17:17:12.695Z,4.63
2017-07-10T17:19:40.198Z,4.33
2017-07-10T17:22:07.725Z,3.90
2017-07-10T17:24:35.231Z,4.70
2017-07-10T17:27:02.739Z,4.20
2017-07-10T17:29:30.255Z,6.00
2017-07-10T17:31:59.348Z,6.87
2017-07-10T17:34:26.874Z,6.90
2017-07-10T17:36:54.375Z,6.73
2017-07-10T17:39:22.663Z,7.17
2017-07-10T17:41:50.168Z,6.87
2017-07-10T17:44:17.688Z,7.90
2017-07-10T17:46:45.195Z,7.20
2017-07-10T17:49:12.725Z,7.67
2017-07-10T17:51:40.225Z,7.00
2017-07-10T17:54:07.731Z,7.90
2017-07-10T17:56:35.255Z,6.87
2017-07-10T17:59:03.530Z,7.20
2017-07-10T18:01:31.807Z,6.70
2017-07-10T18:04:00.083Z,7.60
2017-07-10T18:06:28.376Z,8.30
2017-07-10T18:08:55.890Z,7.90
2017-07-10T18:11:23.424Z,8.07
2017-07-10T18:13:50.925Z,8.27
2017-07-10T18:16:18.437Z,8.13
2017-07-10T18:18:45.966Z,8.10
2017-07-10T18:21:13.472Z,7.50
2017-07-10T18:23:40.998Z,7.87
2017-07-10T18:26:08.495Z,7.40
2017-07-10T18:28:36.016Z,7.93
2017-07-10T18:31:03.535Z,8.17
2017-07-10T18:33:31.843Z,7.50
2017-07-10T18:35:59.360Z,7.70
2017-07-10T18:38:26.895Z,7.73
2017-07-10T18:40:54.398Z,7.60
2017-07-10T18:43:22.669Z,6.90
2017-07-10T18:45:50.960Z,7.37
2017-07-10T18:48:18.471Z,7.73
2017-07-10T18:50:46.008Z,8.87
2017-07-10T18:53:13.511Z,8.57
2017-07-10T18:55:41.030Z,8.93
2017-07-10T18:58:08.532Z,9.40
2017-07-10T19:00:36.059Z,10.00
2017-07-10T19:03:03.568Z,10.93
2017-07-10T19:05:31.096Z,9.70
2017-07-10T19:07:58.593Z,9.60
2017-07-10T19:10:26.101Z,11.57
2017-07-10T19:12:53.628Z,10.33
2017-07-10T19:15:21.136Z,9.87
2017-07-10T19:17:48.659Z,8.87
2017-07-10T19:20:16.168Z,8.27
2017-07-10T19:22:44.455Z,8.67
2017-07-10T19:25:11.973Z,7.03
2017-07-10T19:27:39.508Z,7.80
2017-07-10T19:30:07.012Z,6.97
2017-07-10T19:32:34.515Z,7.20
2017-07-10T19:35:02.034Z,8.83
2017-07-10T19:37:30.303Z,8.80
2017-07-10T19:39:57.823Z,8.37
2017-07-10T19:42:25.328Z,8.70
2017-07-10T19:44:53.613Z,8.23
2017-07-10T19:47:21.124Z,8.43
2017-07-10T19:49:48.652Z,6.20
2017-07-10T19:52:16.159Z,7.70
2017-07-10T19:54:43.664Z,7.20
2017-07-10T19:57:11.188Z,6.40
2017-07-10T19:59:38.716Z,6.47
2017-07-10T20:02:07.059Z,6.63
2017-07-10T20:04:34.588Z,7.00
2017-07-10T20:07:02.116Z,5.83
2017-07-10T20:09:29.624Z,5.70
2017-07-10T20:11:57.152Z,6.57
2017-07-10T20:14:25.410Z,6.00
2017-07-10T20:16:52.928Z,5.90
2017-07-10T20:19:20.427Z,5.90
2017-07-10T20:21:47.944Z,6.13
2017-07-10T20:24:15.476Z,6.10
2017-07-10T20:26:42.980Z,6.23
2017-07-10T20:29:10.727Z,5.70
2017-07-10T20:31:38.227Z,5.53
2017-07-10T20:34:05.752Z,5.50
2017-07-10T20:36:33.259Z,5.67
2017-07-10T20:39:01.552Z,5.43
2017-07-10T20:41:29.056Z,5.73
2017-07-10T20:43:56.575Z,6.03
2017-07-10T20:46:24.075Z,5.43
2017-07-10T20:48:51.574Z,5.73
2017-07-10T20:51:19.092Z,4.87
2017-07-10T20:53:46.600Z,5.60
2017-07-10T20:56:14.121Z,5.80
2017-07-10T20:58:41.621Z,6.17
2017-07-10T21:01:09.144Z,5.57
2017-07-10T21:03:36.648Z,6.20
2017-07-10T21:06:04.178Z,5.83
2017-07-10T21:08:32.476Z,4.70
2017-07-10T21:10:59.994Z,6.47
2017-07-10T21:13:27.520Z,5.53
2017-07-10T21:15:55.020Z,5.57
2017-07-10T21:18:23.304Z,5.30
2017-07-10T21:20:50.806Z,4.80
2017-07-10T21:23:18.330Z,5.30
2017-07-10T21:25:45.827Z,5.60
2017-07-10T21:28:13.351Z,5.33
2017-07-10T21:30:40.851Z,5.30
2017-07-10T21:33:08.355Z,6.43
2017-07-10T21:35:35.897Z,5.20
2017-07-10T21:38:03.408Z,4.80
2017-07-10T21:40:30.926Z,4.90
2017-07-10T21:42:59.198Z,4.83
2017-07-10T21:45:26.729Z,4.23
2017-07-10T21:47:54.232Z,3.63
2017-07-10T21:50:22.527Z,3.83
2017-07-10T21:52:50.022Z,4.10
2017-07-10T21:55:17.523Z,3.83
2017-07-10T21:57:45.050Z,4.37
2017-07-10T22:00:12.559Z,3.97
2017-07-10T22:02:40.084Z,3.80
2017-07-10T22:05:08.351Z,4.47
2017-07-10T22:07:35.875Z,4.20
2017-07-10T22:10:03.386Z,4.50
2017-07-10T22:12:30.919Z,4.50
2017-07-10T22:14:58.420Z,4.60
2017-07-10T22:17:25.923Z,4.17
2017-07-10T22:19:53.440Z,3.77
2017-07-10T22:22:20.951Z,4.30
2017-07-10T22:24:48.468Z,3.97
2017-07-10T22:27:15.971Z,4.20
2017-07-10T22:29:43.484Z,4.00
2017-07-10T22:32:10.996Z,4.40
2017-07-10T22:34:38.512Z,4.70
2017-07-10T22:37:06.016Z,3.70
2017-07-10T22:39:34.283Z,2.60
2017-07-10T22:42:01.799Z,2.80
2017-07-10T22:44:29.291Z,3.10
2017-07-10T22:46:56.804Z,2.63
2017-07-10T22:49:24.307Z,2.60
2017-07-10T22:51:51.827Z,2.90
2017-07-10T22:54:19.323Z,2.87
2017-07-10T22:56:46.847Z,2.83
2017-07-10T22:59:14.360Z,2.57
2017-07-10T23:01:41.876Z,2.57
2017-07-10T23:04:09.397Z,2.43
2017-07-10T23:06:36.900Z,2.80
2017-07-10T23:09:04.416Z,2.80
2017-07-10T23:11:31.928Z,2.97
2017-07-10T23:13:59.453Z,2.60
2017-07-10T23:16:26.955Z,2.60
2017-07-10T23:18:54.480Z,2.87
2017-07-10T23:21:21.979Z,2.87
2017-07-10T23:23:50.243Z,2.80
2017-07-10T23:26:17.757Z,2.90
2017-07-10T23:28:45.264Z,2.70
2017-07-10T23:31:12.787Z,2.33
2017-07-10T23:33:40.292Z,2.40
2017-07-10T23:36:08.588Z,2.90
2017-07-10T23:38:36.087Z,3.23
2017-07-10T23:41:03.590Z,2.80
2017-07-10T23:43:31.107Z,2.70
2017-07-10T23:45:58.607Z,3.00
2017-07-10T23:48:26.124Z,2.47
2017-07-10T23:50:53.627Z,2.80
2017-07-10T23:53:21.148Z,2.20
2017-07-10T23:55:48.646Z,2.40
2017-07-10T23:58:16.143Z,2.47
